sensor_id;sensor_type;location;lat;lon;timestamp;P1;durP1;ratioP1;P2;durP2;ratioP2
140;SDS011;65;48.778;9.160;2023-02-01T00:01:20;6.13;;;3.55;;
140;SDS011;65;48.778;9.160;2023-02-01T00:03:46;6.90;;;3.63;;
140;SDS011;65;48.778;9.160;2023-02-01T00:06:11;6.68;;;3.65;;
140;SDS011;65;48.778;9.160;2023-02-01T00:08:37;6.30;;;3.55;;
140;SDS011;65;48.778;9.160;2023-02-01T00:11:06;7.78;;;3.50;;
140;SDS011;65;48.778;9.160;2023-02-01T00:13:34;5.82;;;3.33;;
140;SDS011;65;48.778;9.160;2023-02-01T00:16:06;6.25;;;3.45;;
140;SDS011;65;48.778;9.160;2023-02-01T00:18:34;6.20;;;3.08;;
140;SDS011;65;48.778;9.160;2023-02-01T00:21:00;5.88;;;3.35;;
140;SDS011;65;48.778;9.160;2023-02-01T00:23:25;6.03;;;2.85;;
140;SDS011;65;48.778;9.160;2023-02-01T00:25:51;5.32;;;2.92;;
140;SDS011;65;48.778;9.160;2023-02-01T00:28:16;5.55;;;2.95;;
140;SDS011;65;48.778;9.160;2023-02-01T00:30:42;6.57;;;3.00;;
140;SDS011;65;48.778;9.160;2023-02-01T00:33:07;5.00;;;2.80;;
140;SDS011;65;48.778;9.160;2023-02-01T00:35:36;6.35;;;2.88;;
140;SDS011;65;48.778;9.160;2023-02-01T00:38:02;4.40;;;2.47;;
140;SDS011;65;48.778;9.160;2023-02-01T00:40:27;5.45;;;2.70;;
140;SDS011;65;48.778;9.160;2023-02-01T00:42:53;4.00;;;2.65;;
140;SDS011;65;48.778;9.160;2023-02-01T00:45:19;7.18;;;2.80;;
140;SDS011;65;48.778;9.160;2023-02-01T00:47:44;5.80;;;2.67;;
140;SDS011;65;48.778;9.160;2023-02-01T00:50:10;4.50;;;2.42;;
140;SDS011;65;48.778;9.160;2023-02-01T00:52:35;4.65;;;2.58;;
140;SDS011;65;48.778;9.160;2023-02-01T00:55:01;3.65;;;2.30;;
140;SDS011;65;48.778;9.160;2023-02-01T00:57:26;4.80;;;2.60;;
140;SDS011;65;48.778;9.160;2023-02-01T00:59:52;3.53;;;2.28;;
140;SDS011;65;48.778;9.160;2023-02-01T01:02:17;5.93;;;2.67;;
140;SDS011;65;48.778;9.160;2023-02-01T01:04:42;4.68;;;2.38;;
140;SDS011;65;48.778;9.160;2023-02-01T01:07:08;4.03;;;2.30;;
140;SDS011;65;48.778;9.160;2023-02-01T01:09:33;6.07;;;2.38;;
140;SDS011;65;48.778;9.160;2023-02-01T01:11:59;4.55;;;2.35;;
140;SDS011;65;48.778;9.160;2023-02-01T01:14:27;4.88;;;2.60;;
140;SDS011;65;48.778;9.160;2023-02-01T01:16:57;4.10;;;2.45;;
140;SDS011;65;48.778;9.160;2023-02-01T01:19:25;5.18;;;2.50;;
140;SDS011;65;48.778;9.160;2023-02-01T01:21:50;4.68;;;2.35;;
140;SDS011;65;48.778;9.160;2023-02-01T01:24:16;4.85;;;2.25;;
140;SDS011;65;48.778;9.160;2023-02-01T01:29:48;3.63;;;2.05;;
140;SDS011;65;48.778;9.160;2023-02-01T01:32:14;3.03;;;2.00;;
140;SDS011;65;48.778;9.160;2023-02-01T01:34:39;4.88;;;2.30;;
140;SDS011;65;48.778;9.160;2023-02-01T01:37:05;3.28;;;2.10;;
140;SDS011;65;48.778;9.160;2023-02-01T01:39:30;4.07;;;1.85;;
140;SDS011;65;48.778;9.160;2023-02-01T01:41:55;4.00;;;2.10;;
140;SDS011;65;48.778;9.160;2023-02-01T01:47:23;4.07;;;2.28;;
140;SDS011;65;48.778;9.160;2023-02-01T01:49:50;4.53;;;2.30;;
140;SDS011;65;48.778;9.160;2023-02-01T01:52:16;3.55;;;1.98;;
140;SDS011;65;48.778;9.160;2023-02-01T01:54:43;3.47;;;2.05;;
140;SDS011;65;48.778;9.160;2023-02-01T01:57:14;3.42;;;1.90;;
140;SDS011;65;48.778;9.160;2023-02-01T01:59:43;4.18;;;2.05;;
140;SDS011;65;48.778;9.160;2023-02-01T02:02:14;3.63;;;2.00;;
140;SDS011;65;48.778;9.160;2023-02-01T02:04:40;3.40;;;2.00;;
140;SDS011;65;48.778;9.160;2023-02-01T02:07:13;3.80;;;2.05;;
140;SDS011;65;48.778;9.160;2023-02-01T02:09:42;4.20;;;2.10;;
140;SDS011;65;48.778;9.160;2023-02-01T02:12:08;4.65;;;2.05;;
140;SDS011;65;48.778;9.160;2023-02-01T02:14:34;4.13;;;2.30;;
140;SDS011;65;48.778;9.160;2023-02-01T02:19:47;4.15;;;2.47;;
140;SDS011;65;48.778;9.160;2023-02-01T02:25:38;3.38;;;1.90;;
140;SDS011;65;48.778;9.160;2023-02-01T02:28:33;4.20;;;2.20;;
140;SDS011;65;48.778;9.160;2023-02-01T02:34:34;4.18;;;2.28;;
140;SDS011;65;48.778;9.160;2023-02-01T02:37:15;3.65;;;2.30;;
140;SDS011;65;48.778;9.160;2023-02-01T02:45:42;4.38;;;2.50;;
140;SDS011;65;48.778;9.160;2023-02-01T02:48:38;3.60;;;2.33;;
140;SDS011;65;48.778;9.160;2023-02-01T02:51:12;3.63;;;2.15;;
140;SDS011;65;48.778;9.160;2023-02-01T02:54:05;4.63;;;2.83;;
140;SDS011;65;48.778;9.160;2023-02-01T02:56:53;4.55;;;2.65;;
140;SDS011;65;48.778;9.160;2023-02-01T02:59:40;4.95;;;2.78;;
140;SDS011;65;48.778;9.160;2023-02-01T03:02:28;5.93;;;2.60;;
140;SDS011;65;48.778;9.160;2023-02-01T03:05:13;6.05;;;2.80;;
140;SDS011;65;48.778;9.160;2023-02-01T03:10:23;4.88;;;2.92;;
140;SDS011;65;48.778;9.160;2023-02-01T03:13:10;6.35;;;2.83;;
140;SDS011;65;48.778;9.160;2023-02-01T03:15:48;5.07;;;2.90;;
140;SDS011;65;48.778;9.160;2023-02-01T03:18:17;4.85;;;2.80;;
140;SDS011;65;48.778;9.160;2023-02-01T03:21:05;5.07;;;2.78;;
140;SDS011;65;48.778;9.160;2023-02-01T03:23:35;4.78;;;2.70;;
140;SDS011;65;48.778;9.160;2023-02-01T03:26:03;4.78;;;2.70;;
140;SDS011;65;48.778;9.160;2023-02-01T03:28:33;3.92;;;2.42;;
140;SDS011;65;48.778;9.160;2023-02-01T03:31:01;4.45;;;2.75;;
140;SDS011;65;48.778;9.160;2023-02-01T03:33:36;4.15;;;2.38;;
140;SDS011;65;48.778;9.160;2023-02-01T03:38:50;5.45;;;2.85;;
140;SDS011;65;48.778;9.160;2023-02-01T03:44:13;7.32;;;3.40;;
140;SDS011;65;48.778;9.160;2023-02-01T03:46:48;5.50;;;3.03;;
140;SDS011;65;48.778;9.160;2023-02-01T03:49:37;6.57;;;2.50;;
140;SDS011;65;48.778;9.160;2023-02-01T03:52:05;5.78;;;3.10;;
140;SDS011;65;48.778;9.160;2023-02-01T03:54:34;5.47;;;2.92;;
140;SDS011;65;48.778;9.160;2023-02-01T03:57:02;5.30;;;2.97;;
140;SDS011;65;48.778;9.160;2023-02-01T03:59:31;5.50;;;2.90;;
140;SDS011;65;48.778;9.160;2023-02-01T04:01:57;5.30;;;3.10;;
140;SDS011;65;48.778;9.160;2023-02-01T04:04:22;7.13;;;3.22;;
140;SDS011;65;48.778;9.160;2023-02-01T04:06:51;5.70;;;3.20;;
140;SDS011;65;48.778;9.160;2023-02-01T04:09:16;5.25;;;3.03;;
140;SDS011;65;48.778;9.160;2023-02-01T04:11:42;4.60;;;2.92;;
140;SDS011;65;48.778;9.160;2023-02-01T04:14:08;4.85;;;2.60;;
140;SDS011;65;48.778;9.160;2023-02-01T04:16:33;7.20;;;3.05;;
140;SDS011;65;48.778;9.160;2023-02-01T04:18:59;5.75;;;2.95;;
140;SDS011;65;48.778;9.160;2023-02-01T04:21:25;5.30;;;3.08;;
140;SDS011;65;48.778;9.160;2023-02-01T04:23:51;4.75;;;2.70;;
140;SDS011;65;48.778;9.160;2023-02-01T04:26:17;5.85;;;3.00;;
140;SDS011;65;48.778;9.160;2023-02-01T04:28:43;5.18;;;2.90;;
140;SDS011;65;48.778;9.160;2023-02-01T04:31:09;5.33;;;2.77;;
140;SDS011;65;48.778;9.160;2023-02-01T04:33:34;4.25;;;2.72;;
140;SDS011;65;48.778;9.160;2023-02-01T04:36:00;4.32;;;2.60;;
140;SDS011;65;48.778;9.160;2023-02-01T04:38:25;3.72;;;2.40;;
140;SDS011;65;48.778;9.160;2023-02-01T04:40:51;4.75;;;2.65;;
140;SDS011;65;48.778;9.160;2023-02-01T04:43:17;4.65;;;2.40;;
140;SDS011;65;48.778;9.160;2023-02-01T04:45:46;4.40;;;2.28;;
140;SDS011;65;48.778;9.160;2023-02-01T04:48:13;5.28;;;2.72;;
140;SDS011;65;48.778;9.160;2023-02-01T04:50:39;4.32;;;2.60;;
140;SDS011;65;48.778;9.160;2023-02-01T04:53:05;6.07;;;2.90;;
140;SDS011;65;48.778;9.160;2023-02-01T04:55:30;4.70;;;2.40;;
140;SDS011;65;48.778;9.160;2023-02-01T04:57:55;4.13;;;2.42;;
140;SDS011;65;48.778;9.160;2023-02-01T05:00:21;3.83;;;2.20;;
140;SDS011;65;48.778;9.160;2023-02-01T05:02:47;3.17;;;1.95;;
140;SDS011;65;48.778;9.160;2023-02-01T05:05:12;3.78;;;1.80;;
140;SDS011;65;48.778;9.160;2023-02-01T05:07:40;4.10;;;2.20;;
140;SDS011;65;48.778;9.160;2023-02-01T05:10:07;3.80;;;2.20;;
140;SDS011;65;48.778;9.160;2023-02-01T05:12:33;3.80;;;2.40;;
140;SDS011;65;48.778;9.160;2023-02-01T05:15:17;4.05;;;2.10;;
140;SDS011;65;48.778;9.160;2023-02-01T05:17:42;2.42;;;1.85;;
140;SDS011;65;48.778;9.160;2023-02-01T05:20:08;3.15;;;2.13;;
140;SDS011;65;48.778;9.160;2023-02-01T05:22:34;4.60;;;2.70;;
140;SDS011;65;48.778;9.160;2023-02-01T05:24:59;4.22;;;2.33;;
140;SDS011;65;48.778;9.160;2023-02-01T05:27:24;3.88;;;2.00;;
140;SDS011;65;48.778;9.160;2023-02-01T05:29:50;3.60;;;2.13;;
140;SDS011;65;48.778;9.160;2023-02-01T05:32:15;4.63;;;2.63;;
140;SDS011;65;48.778;9.160;2023-02-01T05:34:41;4.00;;;2.00;;
140;SDS011;65;48.778;9.160;2023-02-01T05:37:06;6.88;;;2.60;;
140;SDS011;65;48.778;9.160;2023-02-01T05:39:31;5.53;;;2.67;;
140;SDS011;65;48.778;9.160;2023-02-01T05:41:57;6.38;;;2.42;;
140;SDS011;65;48.778;9.160;2023-02-01T05:44:22;4.82;;;2.50;;
140;SDS011;65;48.778;9.160;2023-02-01T05:46:47;4.97;;;2.65;;
140;SDS011;65;48.778;9.160;2023-02-01T05:49:13;5.30;;;2.33;;
140;SDS011;65;48.778;9.160;2023-02-01T05:51:38;4.70;;;2.30;;
140;SDS011;65;48.778;9.160;2023-02-01T05:54:03;4.13;;;2.50;;
140;SDS011;65;48.778;9.160;2023-02-01T05:56:29;4.60;;;2.55;;
140;SDS011;65;48.778;9.160;2023-02-01T05:58:54;5.65;;;2.60;;
140;SDS011;65;48.778;9.160;2023-02-01T06:01:19;5.28;;;2.67;;
140;SDS011;65;48.778;9.160;2023-02-01T06:03:45;4.63;;;2.47;;
140;SDS011;65;48.778;9.160;2023-02-01T06:06:10;5.18;;;2.88;;
140;SDS011;65;48.778;9.160;2023-02-01T06:08:36;6.53;;;3.13;;
140;SDS011;65;48.778;9.160;2023-02-01T06:11:02;6.13;;;3.22;;
140;SDS011;65;48.778;9.160;2023-02-01T06:13:29;6.10;;;2.95;;
140;SDS011;65;48.778;9.160;2023-02-01T06:15:55;6.63;;;3.10;;
140;SDS011;65;48.778;9.160;2023-02-01T06:18:22;4.22;;;2.42;;
140;SDS011;65;48.778;9.160;2023-02-01T06:20:52;5.18;;;2.95;;
140;SDS011;65;48.778;9.160;2023-02-01T06:23:18;8.25;;;3.30;;
140;SDS011;65;48.778;9.160;2023-02-01T06:25:44;6.82;;;3.47;;
140;SDS011;65;48.778;9.160;2023-02-01T06:28:10;5.78;;;3.15;;
140;SDS011;65;48.778;9.160;2023-02-01T06:30:35;5.32;;;2.47;;
140;SDS011;65;48.778;9.160;2023-02-01T06:33:00;5.45;;;2.92;;
140;SDS011;65;48.778;9.160;2023-02-01T06:35:26;5.85;;;2.65;;
140;SDS011;65;48.778;9.160;2023-02-01T06:37:51;6.78;;;2.92;;
140;SDS011;65;48.778;9.160;2023-02-01T06:40:17;5.40;;;2.90;;
140;SDS011;65;48.778;9.160;2023-02-01T06:42:42;6.28;;;3.05;;
140;SDS011;65;48.778;9.160;2023-02-01T06:45:07;5.38;;;2.90;;
140;SDS011;65;48.778;9.160;2023-02-01T06:47:33;10.50;;;3.28;;
140;SDS011;65;48.778;9.160;2023-02-01T06:49:59;4.80;;;2.70;;
140;SDS011;65;48.778;9.160;2023-02-01T06:52:24;7.53;;;2.60;;
140;SDS011;65;48.778;9.160;2023-02-01T06:57:37;6.15;;;2.90;;
140;SDS011;65;48.778;9.160;2023-02-01T07:00:03;5.30;;;2.53;;
140;SDS011;65;48.778;9.160;2023-02-01T07:02:30;4.28;;;2.45;;
140;SDS011;65;48.778;9.160;2023-02-01T07:04:55;6.85;;;2.65;;
140;SDS011;65;48.778;9.160;2023-02-01T07:07:26;7.03;;;2.80;;
140;SDS011;65;48.778;9.160;2023-02-01T07:09:52;7.15;;;3.30;;
140;SDS011;65;48.778;9.160;2023-02-01T07:12:18;5.30;;;2.67;;
140;SDS011;65;48.778;9.160;2023-02-01T07:14:44;4.88;;;2.88;;
140;SDS011;65;48.778;9.160;2023-02-01T07:17:09;6.00;;;2.90;;
140;SDS011;65;48.778;9.160;2023-02-01T07:19:46;7.03;;;3.00;;
140;SDS011;65;48.778;9.160;2023-02-01T07:22:18;7.72;;;3.03;;
140;SDS011;65;48.778;9.160;2023-02-01T07:24:43;4.45;;;2.50;;
140;SDS011;65;48.778;9.160;2023-02-01T07:27:09;8.48;;;3.08;;
140;SDS011;65;48.778;9.160;2023-02-01T07:29:34;6.88;;;3.00;;
140;SDS011;65;48.778;9.160;2023-02-01T07:32:00;8.55;;;3.25;;
140;SDS011;65;48.778;9.160;2023-02-01T07:34:27;6.82;;;2.97;;
140;SDS011;65;48.778;9.160;2023-02-01T07:36:52;9.80;;;3.20;;
140;SDS011;65;48.778;9.160;2023-02-01T07:39:18;8.15;;;3.28;;
140;SDS011;65;48.778;9.160;2023-02-01T07:41:43;5.50;;;2.83;;
140;SDS011;65;48.778;9.160;2023-02-01T07:44:09;4.88;;;2.88;;
140;SDS011;65;48.778;9.160;2023-02-01T07:46:34;6.60;;;2.97;;
140;SDS011;65;48.778;9.160;2023-02-01T07:49:00;7.60;;;2.90;;
140;SDS011;65;48.778;9.160;2023-02-01T07:51:26;6.35;;;2.80;;
140;SDS011;65;48.778;9.160;2023-02-01T07:53:51;7.50;;;2.80;;
140;SDS011;65;48.778;9.160;2023-02-01T07:56:17;7.45;;;2.85;;
140;SDS011;65;48.778;9.160;2023-02-01T08:01:43;9.38;;;3.10;;
140;SDS011;65;48.778;9.160;2023-02-01T08:04:12;5.38;;;2.40;;
140;SDS011;65;48.778;9.160;2023-02-01T08:06:38;7.35;;;2.95;;
140;SDS011;65;48.778;9.160;2023-02-01T08:09:04;7.82;;;2.75;;
140;SDS011;65;48.778;9.160;2023-02-01T08:11:30;6.97;;;3.22;;
140;SDS011;65;48.778;9.160;2023-02-01T08:13:57;8.70;;;2.97;;
140;SDS011;65;48.778;9.160;2023-02-01T08:16:23;7.75;;;3.00;;
140;SDS011;65;48.778;9.160;2023-02-01T08:18:48;8.02;;;2.95;;
140;SDS011;65;48.778;9.160;2023-02-01T08:21:15;8.40;;;2.72;;
140;SDS011;65;48.778;9.160;2023-02-01T08:23:47;9.10;;;3.22;;
140;SDS011;65;48.778;9.160;2023-02-01T08:28:42;9.93;;;3.25;;
140;SDS011;65;48.778;9.160;2023-02-01T08:31:11;8.15;;;3.03;;
140;SDS011;65;48.778;9.160;2023-02-01T08:33:39;8.20;;;3.13;;
140;SDS011;65;48.778;9.160;2023-02-01T08:36:06;8.55;;;2.92;;
140;SDS011;65;48.778;9.160;2023-02-01T08:38:34;9.05;;;2.95;;
140;SDS011;65;48.778;9.160;2023-02-01T08:41:04;8.80;;;2.88;;
140;SDS011;65;48.778;9.160;2023-02-01T08:43:31;8.30;;;2.90;;
140;SDS011;65;48.778;9.160;2023-02-01T08:45:56;9.27;;;2.50;;
140;SDS011;65;48.778;9.160;2023-02-01T08:48:22;6.55;;;2.85;;
140;SDS011;65;48.778;9.160;2023-02-01T08:50:47;10.68;;;3.28;;
140;SDS011;65;48.778;9.160;2023-02-01T08:53:13;9.77;;;3.30;;
140;SDS011;65;48.778;9.160;2023-02-01T08:55:39;10.20;;;3.15;;
140;SDS011;65;48.778;9.160;2023-02-01T08:58:04;8.43;;;3.00;;
140;SDS011;65;48.778;9.160;2023-02-01T09:00:32;12.07;;;3.40;;
140;SDS011;65;48.778;9.160;2023-02-01T09:02:57;16.00;;;3.80;;
140;SDS011;65;48.778;9.160;2023-02-01T09:05:23;17.67;;;3.83;;
140;SDS011;65;48.778;9.160;2023-02-01T09:07:51;12.43;;;3.70;;
140;SDS011;65;48.778;9.160;2023-02-01T09:10:17;9.18;;;3.00;;
140;SDS011;65;48.778;9.160;2023-02-01T09:12:43;10.45;;;3.08;;
140;SDS011;65;48.778;9.160;2023-02-01T09:15:08;9.85;;;2.90;;
140;SDS011;65;48.778;9.160;2023-02-01T09:17:34;10.18;;;3.08;;
140;SDS011;65;48.778;9.160;2023-02-01T09:19:59;11.30;;;2.92;;
140;SDS011;65;48.778;9.160;2023-02-01T09:22:25;7.15;;;2.97;;
140;SDS011;65;48.778;9.160;2023-02-01T09:24:51;6.90;;;2.78;;
140;SDS011;65;48.778;9.160;2023-02-01T09:27:17;7.80;;;3.05;;
140;SDS011;65;48.778;9.160;2023-02-01T09:29:42;12.23;;;3.28;;
140;SDS011;65;48.778;9.160;2023-02-01T09:32:08;5.75;;;2.80;;
140;SDS011;65;48.778;9.160;2023-02-01T09:34:34;12.30;;;2.72;;
140;SDS011;65;48.778;9.160;2023-02-01T09:37:00;8.85;;;2.97;;
140;SDS011;65;48.778;9.160;2023-02-01T09:39:26;14.32;;;3.63;;
140;SDS011;65;48.778;9.160;2023-02-01T09:46:57;10.05;;;2.78;;
140;SDS011;65;48.778;9.160;2023-02-01T09:49:28;11.88;;;3.10;;
140;SDS011;65;48.778;9.160;2023-02-01T09:51:57;10.48;;;3.10;;
140;SDS011;65;48.778;9.160;2023-02-01T09:54:26;11.07;;;2.92;;
140;SDS011;65;48.778;9.160;2023-02-01T09:59:49;10.32;;;2.78;;
140;SDS011;65;48.778;9.160;2023-02-01T10:02:24;8.90;;;2.70;;
140;SDS011;65;48.778;9.160;2023-02-01T10:04:52;16.27;;;3.60;;
140;SDS011;65;48.778;9.160;2023-02-01T10:07:23;9.77;;;2.70;;
140;SDS011;65;48.778;9.160;2023-02-01T10:28:21;13.10;;;3.50;;
140;SDS011;65;48.778;9.160;2023-02-01T10:30:49;11.82;;;3.33;;
140;SDS011;65;48.778;9.160;2023-02-01T10:33:26;11.60;;;2.60;;
140;SDS011;65;48.778;9.160;2023-02-01T10:36:04;17.15;;;3.10;;
140;SDS011;65;48.778;9.160;2023-02-01T10:38:38;12.05;;;2.90;;
140;SDS011;65;48.778;9.160;2023-02-01T10:41:38;7.90;;;2.10;;
140;SDS011;65;48.778;9.160;2023-02-01T10:43:58;10.32;;;2.70;;
140;SDS011;65;48.778;9.160;2023-02-01T10:46:25;11.20;;;3.05;;
140;SDS011;65;48.778;9.160;2023-02-01T10:48:51;10.10;;;3.00;;
140;SDS011;65;48.778;9.160;2023-02-01T10:51:24;14.30;;;3.08;;
140;SDS011;65;48.778;9.160;2023-02-01T10:54:05;14.65;;;2.80;;
140;SDS011;65;48.778;9.160;2023-02-01T10:56:39;11.80;;;3.25;;
140;SDS011;65;48.778;9.160;2023-02-01T10:59:05;11.20;;;2.75;;
140;SDS011;65;48.778;9.160;2023-02-01T11:01:37;10.57;;;2.65;;
140;SDS011;65;48.778;9.160;2023-02-01T11:04:07;10.35;;;2.80;;
140;SDS011;65;48.778;9.160;2023-02-01T11:11:57;14.07;;;3.38;;
140;SDS011;65;48.778;9.160;2023-02-01T11:16:59;10.68;;;2.60;;
140;SDS011;65;48.778;9.160;2023-02-01T11:19:27;9.70;;;2.58;;
140;SDS011;65;48.778;9.160;2023-02-01T11:21:57;13.23;;;3.00;;
140;SDS011;65;48.778;9.160;2023-02-01T11:26:59;11.55;;;2.90;;
140;SDS011;65;48.778;9.160;2023-02-01T11:29:28;9.45;;;2.35;;
140;SDS011;65;48.778;9.160;2023-02-01T11:31:59;13.55;;;2.65;;
140;SDS011;65;48.778;9.160;2023-02-01T11:34:26;11.70;;;2.75;;
140;SDS011;65;48.778;9.160;2023-02-01T11:36:58;11.07;;;2.80;;
140;SDS011;65;48.778;9.160;2023-02-01T11:39:27;10.63;;;2.72;;
140;SDS011;65;48.778;9.160;2023-02-01T11:44:44;10.38;;;2.90;;
140;SDS011;65;48.778;9.160;2023-02-01T11:49:49;12.98;;;3.20;;
140;SDS011;65;48.778;9.160;2023-02-01T12:22:45;13.75;;;3.15;;
140;SDS011;65;48.778;9.160;2023-02-01T12:36:11;12.55;;;2.67;;
140;SDS011;65;48.778;9.160;2023-02-01T12:41:25;10.18;;;2.88;;
140;SDS011;65;48.778;9.160;2023-02-01T12:49:21;11.50;;;2.45;;
140;SDS011;65;48.778;9.160;2023-02-01T12:52:04;15.60;;;3.05;;
140;SDS011;65;48.778;9.160;2023-02-01T12:57:11;10.63;;;2.60;;
140;SDS011;65;48.778;9.160;2023-02-01T13:00:05;10.15;;;2.90;;
140;SDS011;65;48.778;9.160;2023-02-01T13:02:46;9.18;;;2.90;;
140;SDS011;65;48.778;9.160;2023-02-01T13:05:22;9.85;;;2.47;;
140;SDS011;65;48.778;9.160;2023-02-01T13:10:39;11.50;;;2.55;;
140;SDS011;65;48.778;9.160;2023-02-01T13:18:41;12.35;;;2.67;;
140;SDS011;65;48.778;9.160;2023-02-01T13:21:16;9.98;;;2.53;;
140;SDS011;65;48.778;9.160;2023-02-01T13:23:55;9.25;;;2.38;;
140;SDS011;65;48.778;9.160;2023-02-01T13:26:20;12.20;;;2.78;;
140;SDS011;65;48.778;9.160;2023-02-01T13:34:31;11.73;;;2.58;;
140;SDS011;65;48.778;9.160;2023-02-01T13:39:59;14.80;;;2.67;;
140;SDS011;65;48.778;9.160;2023-02-01T13:42:49;7.25;;;2.40;;
140;SDS011;65;48.778;9.160;2023-02-01T13:45:28;10.65;;;2.80;;
140;SDS011;65;48.778;9.160;2023-02-01T13:47:57;14.68;;;3.00;;
140;SDS011;65;48.778;9.160;2023-02-01T13:50:37;10.50;;;2.63;;
140;SDS011;65;48.778;9.160;2023-02-01T13:55:41;7.72;;;2.20;;
140;SDS011;65;48.778;9.160;2023-02-01T14:00:36;9.98;;;2.70;;
140;SDS011;65;48.778;9.160;2023-02-01T14:13:26;10.98;;;3.10;;
140;SDS011;65;48.778;9.160;2023-02-01T14:23:55;13.50;;;2.70;;
140;SDS011;65;48.778;9.160;2023-02-01T14:37:03;10.23;;;2.75;;
140;SDS011;65;48.778;9.160;2023-02-01T14:42:04;10.00;;;2.03;;
140;SDS011;65;48.778;9.160;2023-02-01T14:50:39;9.02;;;2.70;;
140;SDS011;65;48.778;9.160;2023-02-01T15:00:59;15.23;;;3.47;;
140;SDS011;65;48.778;9.160;2023-02-01T15:06:22;12.13;;;2.95;;
140;SDS011;65;48.778;9.160;2023-02-01T15:08:48;11.05;;;2.67;;
140;SDS011;65;48.778;9.160;2023-02-01T15:11:14;11.98;;;3.10;;
140;SDS011;65;48.778;9.160;2023-02-01T15:13:47;13.35;;;3.10;;
140;SDS011;65;48.778;9.160;2023-02-01T15:16:16;10.88;;;2.55;;
140;SDS011;65;48.778;9.160;2023-02-01T15:18:42;10.43;;;3.03;;
140;SDS011;65;48.778;9.160;2023-02-01T15:23:42;8.82;;;2.53;;
140;SDS011;65;48.778;9.160;2023-02-01T15:26:08;11.95;;;2.60;;
140;SDS011;65;48.778;9.160;2023-02-01T15:28:33;11.48;;;2.88;;
140;SDS011;65;48.778;9.160;2023-02-01T15:31:00;9.82;;;2.80;;
140;SDS011;65;48.778;9.160;2023-02-01T15:33:27;11.18;;;3.03;;
140;SDS011;65;48.778;9.160;2023-02-01T15:35:56;8.77;;;2.83;;
140;SDS011;65;48.778;9.160;2023-02-01T15:41:17;12.52;;;2.78;;
140;SDS011;65;48.778;9.160;2023-02-01T15:46:28;9.82;;;2.65;;
140;SDS011;65;48.778;9.160;2023-02-01T15:49:05;12.50;;;2.78;;
140;SDS011;65;48.778;9.160;2023-02-01T15:51:45;8.13;;;2.40;;
140;SDS011;65;48.778;9.160;2023-02-01T15:54:13;11.57;;;2.80;;
140;SDS011;65;48.778;9.160;2023-02-01T15:56:46;6.85;;;2.30;;
140;SDS011;65;48.778;9.160;2023-02-01T15:59:18;10.65;;;2.88;;
140;SDS011;65;48.778;9.160;2023-02-01T16:01:45;8.13;;;2.53;;
140;SDS011;65;48.778;9.160;2023-02-01T16:06:52;11.63;;;3.08;;
140;SDS011;65;48.778;9.160;2023-02-01T16:09:21;8.65;;;2.50;;
140;SDS011;65;48.778;9.160;2023-02-01T16:11:52;10.45;;;2.53;;
140;SDS011;65;48.778;9.160;2023-02-01T16:14:19;9.88;;;2.58;;
140;SDS011;65;48.778;9.160;2023-02-01T16:16:45;7.93;;;2.20;;
140;SDS011;65;48.778;9.160;2023-02-01T16:19:10;10.60;;;2.50;;
140;SDS011;65;48.778;9.160;2023-02-01T16:21:36;8.25;;;2.30;;
140;SDS011;65;48.778;9.160;2023-02-01T16:24:01;8.02;;;3.13;;
140;SDS011;65;48.778;9.160;2023-02-01T16:26:29;7.80;;;2.20;;
140;SDS011;65;48.778;9.160;2023-02-01T16:28:59;8.23;;;2.58;;
140;SDS011;65;48.778;9.160;2023-02-01T16:31:28;12.52;;;2.97;;
140;SDS011;65;48.778;9.160;2023-02-01T16:33:55;13.23;;;2.30;;
140;SDS011;65;48.778;9.160;2023-02-01T16:36:21;9.82;;;2.53;;
140;SDS011;65;48.778;9.160;2023-02-01T16:38:47;10.13;;;2.50;;
140;SDS011;65;48.778;9.160;2023-02-01T16:41:17;11.30;;;2.67;;
140;SDS011;65;48.778;9.160;2023-02-01T16:43:43;12.20;;;2.80;;
140;SDS011;65;48.778;9.160;2023-02-01T16:46:13;11.38;;;2.60;;
140;SDS011;65;48.778;9.160;2023-02-01T16:48:41;6.88;;;2.38;;
140;SDS011;65;48.778;9.160;2023-02-01T16:51:11;12.70;;;2.90;;
140;SDS011;65;48.778;9.160;2023-02-01T16:53:41;11.82;;;2.70;;
140;SDS011;65;48.778;9.160;2023-02-01T16:56:12;10.57;;;2.55;;
140;SDS011;65;48.778;9.160;2023-02-01T16:58:42;11.15;;;3.00;;
140;SDS011;65;48.778;9.160;2023-02-01T17:01:09;12.43;;;2.95;;
140;SDS011;65;48.778;9.160;2023-02-01T17:03:36;9.68;;;2.63;;
140;SDS011;65;48.778;9.160;2023-02-01T17:06:02;10.77;;;2.85;;
140;SDS011;65;48.778;9.160;2023-02-01T17:08:30;11.02;;;2.58;;
140;SDS011;65;48.778;9.160;2023-02-01T17:10:56;8.00;;;2.28;;
140;SDS011;65;48.778;9.160;2023-02-01T17:13:21;8.93;;;2.55;;
140;SDS011;65;48.778;9.160;2023-02-01T17:15:54;10.85;;;2.38;;
140;SDS011;65;48.778;9.160;2023-02-01T17:18:23;11.38;;;2.90;;
140;SDS011;65;48.778;9.160;2023-02-01T17:20:50;12.45;;;2.90;;
140;SDS011;65;48.778;9.160;2023-02-01T17:23:17;9.00;;;2.50;;
140;SDS011;65;48.778;9.160;2023-02-01T17:25:43;11.05;;;2.70;;
140;SDS011;65;48.778;9.160;2023-02-01T17:28:09;9.20;;;2.70;;
140;SDS011;65;48.778;9.160;2023-02-01T17:30:34;10.60;;;2.95;;
140;SDS011;65;48.778;9.160;2023-02-01T17:33:01;9.52;;;2.35;;
140;SDS011;65;48.778;9.160;2023-02-01T17:35:27;17.98;;;4.47;;
140;SDS011;65;48.778;9.160;2023-02-01T17:37:55;9.60;;;2.90;;
140;SDS011;65;48.778;9.160;2023-02-01T17:40:20;10.38;;;2.55;;
140;SDS011;65;48.778;9.160;2023-02-01T17:42:46;12.70;;;3.10;;
140;SDS011;65;48.778;9.160;2023-02-01T17:45:24;12.20;;;2.90;;
140;SDS011;65;48.778;9.160;2023-02-01T17:47:50;16.20;;;3.90;;
140;SDS011;65;48.778;9.160;2023-02-01T17:50:16;8.77;;;2.70;;
140;SDS011;65;48.778;9.160;2023-02-01T17:52:41;8.85;;;2.80;;
140;SDS011;65;48.778;9.160;2023-02-01T17:55:20;13.43;;;3.30;;
140;SDS011;65;48.778;9.160;2023-02-01T17:57:48;9.73;;;2.63;;
140;SDS011;65;48.778;9.160;2023-02-01T18:00:16;12.82;;;2.72;;
140;SDS011;65;48.778;9.160;2023-02-01T18:02:43;11.32;;;2.55;;
140;SDS011;65;48.778;9.160;2023-02-01T18:07:52;18.80;;;3.15;;
140;SDS011;65;48.778;9.160;2023-02-01T18:10:17;10.77;;;2.55;;
140;SDS011;65;48.778;9.160;2023-02-01T18:12:43;11.63;;;3.05;;
140;SDS011;65;48.778;9.160;2023-02-01T18:15:17;8.80;;;2.30;;
140;SDS011;65;48.778;9.160;2023-02-01T18:17:44;13.27;;;3.00;;
140;SDS011;65;48.778;9.160;2023-02-01T18:20:13;13.73;;;3.03;;
140;SDS011;65;48.778;9.160;2023-02-01T18:22:46;10.23;;;2.78;;
140;SDS011;65;48.778;9.160;2023-02-01T18:25:22;12.32;;;3.00;;
140;SDS011;65;48.778;9.160;2023-02-01T18:27:53;13.20;;;2.65;;
140;SDS011;65;48.778;9.160;2023-02-01T18:30:20;8.18;;;2.58;;
140;SDS011;65;48.778;9.160;2023-02-01T18:32:47;8.90;;;2.80;;
140;SDS011;65;48.778;9.160;2023-02-01T18:35:20;9.77;;;3.00;;
140;SDS011;65;48.778;9.160;2023-02-01T18:37:48;14.75;;;3.10;;
140;SDS011;65;48.778;9.160;2023-02-01T18:40:18;6.90;;;2.10;;
140;SDS011;65;48.778;9.160;2023-02-01T18:42:45;7.88;;;2.70;;
140;SDS011;65;48.778;9.160;2023-02-01T18:47:48;10.73;;;2.60;;
140;SDS011;65;48.778;9.160;2023-02-01T18:50:15;12.90;;;2.65;;
140;SDS011;65;48.778;9.160;2023-02-01T18:52:41;9.85;;;2.70;;
140;SDS011;65;48.778;9.160;2023-02-01T18:55:07;8.95;;;2.28;;
140;SDS011;65;48.778;9.160;2023-02-01T18:57:33;12.70;;;2.78;;
140;SDS011;65;48.778;9.160;2023-02-01T18:59:59;14.73;;;2.92;;
140;SDS011;65;48.778;9.160;2023-02-01T19:02:25;9.20;;;2.50;;
140;SDS011;65;48.778;9.160;2023-02-01T19:04:51;6.32;;;2.30;;
140;SDS011;65;48.778;9.160;2023-02-01T19:07:17;14.38;;;3.08;;
140;SDS011;65;48.778;9.160;2023-02-01T19:09:42;12.40;;;2.88;;
140;SDS011;65;48.778;9.160;2023-02-01T19:12:08;10.82;;;2.60;;
140;SDS011;65;48.778;9.160;2023-02-01T19:14:33;13.85;;;3.08;;
140;SDS011;65;48.778;9.160;2023-02-01T19:16:58;8.52;;;2.58;;
140;SDS011;65;48.778;9.160;2023-02-01T19:19:24;10.60;;;2.80;;
140;SDS011;65;48.778;9.160;2023-02-01T19:21:50;12.07;;;3.05;;
140;SDS011;65;48.778;9.160;2023-02-01T19:24:16;7.60;;;2.58;;
140;SDS011;65;48.778;9.160;2023-02-01T19:26:42;14.30;;;3.08;;
140;SDS011;65;48.778;9.160;2023-02-01T19:29:08;9.73;;;2.92;;
140;SDS011;65;48.778;9.160;2023-02-01T19:31:35;12.98;;;2.35;;
140;SDS011;65;48.778;9.160;2023-02-01T19:34:01;10.70;;;3.20;;
140;SDS011;65;48.778;9.160;2023-02-01T19:36:26;9.07;;;2.60;;
140;SDS011;65;48.778;9.160;2023-02-01T19:38:52;10.95;;;2.35;;
140;SDS011;65;48.778;9.160;2023-02-01T19:41:18;10.32;;;2.40;;